Time;durP1;ratioP1;P1;durP2;ratioP2;P2;SDS_P1;SDS_P2;PMS_P1;PMS_P2;Temp;Humidity;BMP_temperature;BMP_pressure;BME280_temperature;BME280_humidity;BME280_pressure;Samples;Min_cycle;Max_cycle;Signal;HPM_P1;HPM_P2
2020/12/16 00:00:11;;;;;;;234.47;115.15;;;;;;;-1.89;84.84;98423.79;1784924;80;21033;-77
2020/12/16 00:02:38;;;;;;;228.22;112.75;;;;;;;-1.89;85.00;98426.44;1784883;80;21290;-77
2020/12/16 00:05:05;;;;;;;245.30;109.85;;;;;;;-1.88;84.76;98431.59;1784760;80;21107;-77
2020/12/16 00:07:32;;;;;;;213.68;109.42;;;;;;;-1.91;84.94;98416.02;1784835;80;21205;-77
2020/12/16 00:09:58;;;;;;;245.02;113.37;;;;;;;-1.91;85.00;98433.79;1784839;80;21146;-79
2020/12/16 00:12:24;;;;;;;221.77;109.48;;;;;;;-1.89;84.82;98429.92;1756202;80;21182;-79
2020/12/16 00:14:50;;;;;;;233.90;114.25;;;;;;;-1.86;84.84;98427.41;1784817;80;21322;-79
2020/12/16 00:17:16;;;;;;;231.40;109.42;;;;;;;-1.91;84.82;98421.83;1784723;80;21038;-77
2020/12/16 00:19:42;;;;;;;226.52;112.97;;;;;;;-1.88;84.88;98438.71;1756535;80;20963;-77
2020/12/16 00:22:07;;;;;;;236.05;112.85;;;;;;;-1.90;84.84;98435.43;1756338;80;21026;-77
2020/12/16 00:24:33;;;;;;;234.98;112.60;;;;;;;-1.91;84.84;98441.76;1784855;80;21539;-79
2020/12/16 00:26:59;;;;;;;239.10;111.00;;;;;;;-1.97;85.28;98433.21;1756255;80;21197;-79
2020/12/16 00:29:25;;;;;;;219.65;108.42;;;;;;;-1.89;85.19;98445.86;1784765;80;21520;-77
2020/12/16 00:31:51;;;;;;;228.12;107.85;;;;;;;-1.84;85.18;98443.98;1784840;80;21002;-77
2020/12/16 00:34:17;;;;;;;202.07;100.47;;;;;;;-1.87;85.03;98434.56;1756086;80;21104;-77
2020/12/16 00:36:42;;;;;;;214.72;106.30;;;;;;;-1.88;84.95;98440.04;1784834;80;21004;-77
2020/12/16 00:39:09;;;;;;;214.63;105.25;;;;;;;-1.88;84.90;98440.89;1756125;80;21787;-77
2020/12/16 00:41:35;;;;;;;198.28;100.00;;;;;;;-1.82;84.98;98438.78;1756087;80;21483;-77
2020/12/16 00:44:03;;;;;;;206.40;97.22;;;;;;;-1.82;85.00;98432.14;1784825;80;20959;-79
2020/12/16 00:46:28;;;;;;;193.40;97.90;;;;;;;-1.84;84.60;98432.02;1784727;80;21114;-78
2020/12/16 00:48:54;;;;;;;197.13;97.12;;;;;;;-1.89;84.45;98425.12;1784771;80;21549;-77
2020/12/16 00:51:20;;;;;;;197.25;93.58;;;;;;;-1.92;84.73;98425.51;1784766;80;21171;-79
2020/12/16 00:53:46;;;;;;;167.18;85.32;;;;;;;-1.92;84.64;98433.48;1784736;80;20899;-77
2020/12/16 00:56:12;;;;;;;190.20;90.42;;;;;;;-1.96;84.45;98430.90;1784791;80;20848;-79
2020/12/16 00:58:38;;;;;;;189.70;89.97;;;;;;;-2.03;85.17;98431.65;1784808;80;21145;-77
2020/12/16 01:01:06;;;;;;;200.22;95.22;;;;;;;-2.00;84.84;98436.57;1784812;80;20912;-79
2020/12/16 01:03:32;;;;;;;177.87;84.42;;;;;;;-2.09;85.49;98431.57;1784375;80;21503;-79
2020/12/16 01:05:58;;;;;;;179.75;83.40;;;;;;;-2.09;85.92;98432.91;1756185;80;21233;-77
2020/12/16 01:08:24;;;;;;;225.87;106.15;;;;;;;-2.05;85.46;98429.69;1784851;80;21027;-79
2020/12/16 01:10:49;;;;;;;205.95;97.22;;;;;;;-2.10;86.52;98425.44;1756147;80;20904;-79
2020/12/16 01:13:15;;;;;;;196.93;97.10;;;;;;;-2.09;86.06;98424.42;1784848;80;20956;-77
2020/12/16 01:15:41;;;;;;;199.47;90.62;;;;;;;-2.03;85.83;98442.27;1784840;80;21166;-77
2020/12/16 01:18:07;;;;;;;195.35;96.12;;;;;;;-1.96;85.66;98441.52;1784829;80;20947;-79
2020/12/16 01:20:33;;;;;;;204.05;94.95;;;;;;;-1.91;85.53;98447.89;1784887;80;20868;-79
2020/12/16 01:22:59;;;;;;;194.77;97.88;;;;;;;-1.89;85.35;98441.05;1784843;80;21201;-77
2020/12/16 01:25:24;;;;;;;196.87;98.42;;;;;;;-1.90;85.15;98461.99;1784840;80;20912;-79
2020/12/16 01:27:56;;;;;;;184.82;89.40;;;;;;;-1.97;84.95;98455.78;1784815;80;21438;-77
2020/12/16 01:30:22;;;;;;;199.42;89.83;;;;;;;-2.05;84.55;98449.61;1783942;80;21209;-79
2020/12/16 01:32:50;;;;;;;193.02;92.27;;;;;;;-2.22;84.55;98447.35;1784635;80;21850;-78
2020/12/16 01:35:16;;;;;;;186.40;95.53;;;;;;;-2.21;84.75;98449.02;1784948;80;21059;-80
2020/12/16 01:37:42;;;;;;;198.17;94.70;;;;;;;-2.30;84.75;98437.70;1784719;80;22278;-78
2020/12/16 01:40:08;;;;;;;190.70;90.22;;;;;;;-2.40;84.49;98443.78;1784768;80;21383;-79
2020/12/16 01:42:36;;;;;;;189.77;86.42;;;;;;;-2.44;84.58;98439.36;1784701;80;21638;-78
2020/12/16 01:45:07;;;;;;;189.62;92.78;;;;;;;-2.46;84.57;98444.55;1784739;80;21840;-80
2020/12/16 01:47:33;;;;;;;173.13;83.97;;;;;;;-2.52;84.52;98447.43;1784747;80;21098;-77
2020/12/16 01:49:59;;;;;;;180.65;83.67;;;;;;;-2.50;84.69;98452.05;1756125;80;21094;-78
2020/12/16 01:52:26;;;;;;;188.95;88.75;;;;;;;-2.51;85.03;98453.05;1784804;80;21351;-77
2020/12/16 01:54:54;;;;;;;183.60;94.45;;;;;;;-2.52;84.77;98465.19;1784632;80;21034;-77
2020/12/16 01:57:20;;;;;;;182.27;93.85;;;;;;;-2.49;84.90;98471.44;1784787;80;21134;-78
2020/12/16 01:59:47;;;;;;;179.40;83.92;;;;;;;-2.46;84.99;98478.55;1784731;80;21023;-78
2020/12/16 02:02:14;;;;;;;195.15;86.95;;;;;;;-2.43;85.15;98478.67;1784793;80;21531;-78
2020/12/16 02:04:43;;;;;;;181.55;84.92;;;;;;;-2.34;85.03;98482.86;1784684;80;21339;-77
2020/12/16 02:07:10;;;;;;;160.15;81.40;;;;;;;-2.33;85.06;98491.97;1784729;80;24808;-79
2020/12/16 02:09:42;;;;;;;192.90;88.80;;;;;;;-2.46;84.88;98479.05;1784713;80;21587;-78
2020/12/16 02:12:32;;;;;;;198.17;94.80;;;;;;;-2.44;84.83;98492.45;1756283;80;21129;-79
2020/12/16 02:14:57;;;;;;;192.72;96.70;;;;;;;-2.47;84.74;98489.35;1784613;80;21150;-80
2020/12/16 02:17:23;;;;;;;175.97;85.62;;;;;;;-2.45;84.89;98492.64;1784778;80;21293;-78
2020/12/16 02:19:55;;;;;;;180.78;85.65;;;;;;;-2.44;84.83;98492.45;1784609;80;20963;-78
2020/12/16 02:22:22;;;;;;;185.03;84.77;;;;;;;-2.52;84.53;98488.56;1784858;80;21086;-77
2020/12/16 02:25:00;;;;;;;170.95;81.42;;;;;;;-2.50;84.88;98489.70;1756016;80;21094;-77
2020/12/16 02:27:27;;;;;;;167.90;74.75;;;;;;;-2.44;84.98;98497.75;1782816;80;21034;-79
2020/12/16 02:29:53;;;;;;;150.30;71.05;;;;;;;-2.39;84.71;98490.58;1756227;80;21272;-77
2020/12/16 02:32:19;;;;;;;178.87;86.80;;;;;;;-2.47;84.67;98494.16;1784713;80;21170;-79
2020/12/16 02:34:45;;;;;;;160.63;76.82;;;;;;;-2.51;84.77;98490.72;1784710;80;21020;-77
2020/12/16 02:37:11;;;;;;;165.90;78.65;;;;;;;-2.53;85.32;98493.55;1784834;80;21166;-77
2020/12/16 02:39:37;;;;;;;178.87;91.40;;;;;;;-2.49;85.17;98482.88;1784767;80;20955;-77
2020/12/16 02:42:06;;;;;;;167.30;82.53;;;;;;;-2.48;84.93;98489.83;1784935;80;21089;-76
2020/12/16 02:44:32;;;;;;;167.15;81.45;;;;;;;-2.52;84.87;98477.95;1784848;80;21037;-78
2020/12/16 02:46:59;;;;;;;152.62;77.65;;;;;;;-2.47;84.73;98487.52;1756389;80;21126;-79
2020/12/16 02:49:25;;;;;;;164.03;76.95;;;;;;;-2.45;84.73;98500.59;1784813;80;21035;-79
2020/12/16 02:51:51;;;;;;;147.25;76.62;;;;;;;-2.47;84.68;98485.38;1784960;80;21153;-80
2020/12/16 02:54:17;;;;;;;171.77;77.25;;;;;;;-2.48;85.03;98491.66;1784936;80;21202;-78
2020/12/16 02:56:48;;;;;;;171.15;79.65;;;;;;;-2.45;84.97;98486.83;1784803;80;20916;-78
2020/12/16 02:59:14;;;;;;;166.18;76.05;;;;;;;-2.39;85.03;98495.89;1784871;80;21566;-79
2020/12/16 03:01:40;;;;;;;153.62;75.78;;;;;;;-2.38;84.78;98485.08;1784814;80;21142;-77
2020/12/16 03:04:06;;;;;;;170.90;78.90;;;;;;;-2.35;84.83;98485.20;1756309;80;20998;-79
2020/12/16 03:06:34;;;;;;;175.07;75.78;;;;;;;-2.37;85.00;98481.92;1784988;80;21274;-79
2020/12/16 03:08:59;;;;;;;160.15;69.95;;;;;;;-2.35;85.34;98494.49;1784927;80;21138;-78
2020/12/16 03:11:25;;;;;;;116.20;48.33;;;;;;;-2.27;85.14;98491.23;1784975;80;20873;-79
2020/12/16 03:13:51;;;;;;;145.90;71.72;;;;;;;-2.20;84.95;98480.69;1784998;80;21443;-79
2020/12/16 03:16:21;;;;;;;132.72;64.30;;;;;;;-2.27;84.95;98490.41;1784950;80;20912;-79
2020/12/16 03:18:47;;;;;;;129.07;62.45;;;;;;;-2.27;85.14;98495.20;1784904;80;21412;-77
2020/12/16 03:21:16;;;;;;;115.95;57.15;;;;;;;-2.16;85.57;98498.39;1784705;80;20908;-78
2020/12/16 03:23:42;;;;;;;110.92;51.23;;;;;;;-2.12;86.98;98493.03;1782617;80;21634;-79
2020/12/16 03:26:08;;;;;;;122.30;57.53;;;;;;;-2.01;85.53;98499.17;1784869;80;21071;-79
2020/12/16 03:28:34;;;;;;;124.87;62.08;;;;;;;-2.04;85.47;98500.39;1784783;80;20996;-79
2020/12/16 03:31:00;;;;;;;113.17;56.37;;;;;;;-1.95;85.58;98499.77;1784879;80;21189;-79
2020/12/16 03:33:26;;;;;;;129.05;58.60;;;;;;;-1.91;85.17;98494.89;1784800;80;20869;-77
2020/12/16 03:35:52;;;;;;;123.07;55.63;;;;;;;-1.94;85.59;98497.93;1784828;80;20943;-79
2020/12/16 03:38:17;;;;;;;129.72;63.30;;;;;;;-1.89;85.28;98495.52;1784946;80;21182;-79
2020/12/16 03:40:43;;;;;;;125.85;58.65;;;;;;;-1.87;85.27;98492.19;1784824;80;20924;-79
2020/12/16 03:43:09;;;;;;;225.13;103.90;;;;;;;-1.85;85.12;98496.29;1784913;80;21113;-77
2020/12/16 03:45:35;;;;;;;176.57;81.25;;;;;;;-1.80;85.05;98483.75;1784805;80;20983;-77
2020/12/16 03:48:01;;;;;;;131.15;61.63;;;;;;;-1.87;84.97;98491.67;1784913;80;20983;-79
2020/12/16 03:50:27;;;;;;;139.43;63.52;;;;;;;-2.03;86.34;98498.05;1784771;80;21046;-79
2020/12/16 03:52:52;;;;;;;123.55;61.92;;;;;;;-2.05;85.66;98495.23;1784942;80;20913;-79
2020/12/16 03:55:18;;;;;;;117.25;56.60;;;;;;;-2.03;85.69;98498.05;1784886;80;21541;-77
2020/12/16 03:57:44;;;;;;;127.78;61.08;;;;;;;-1.96;85.48;98497.30;1784787;80;20967;-77
2020/12/16 04:00:10;;;;;;;130.30;62.00;;;;;;;-1.86;85.63;98499.14;1784839;80;21002;-79
2020/12/16 04:02:39;;;;;;;119.02;55.23;;;;;;;-1.85;85.29;98497.62;1756349;80;20999;-79
2020/12/16 04:05:05;;;;;;;131.12;63.13;;;;;;;-1.87;85.53;98501.48;1756284;80;21099;-77
2020/12/16 04:07:31;;;;;;;122.45;63.17;;;;;;;-1.93;85.83;98488.95;1784913;80;21397;-77
2020/12/16 04:09:58;;;;;;;107.52;55.17;;;;;;;-1.87;85.53;98497.50;1784668;80;21046;-78
2020/12/16 04:12:24;;;;;;;96.80;44.03;;;;;;;-1.83;85.41;98500.91;1756195;80;21190;-78
2020/12/16 04:14:50;;;;;;;131.45;62.27;;;;;;;-1.77;85.02;98500.66;1784763;80;21474;-77
2020/12/16 04:17:16;;;;;;;135.03;62.75;;;;;;;-1.88;84.91;98493.17;1784888;80;20919;-77
2020/12/16 04:19:42;;;;;;;126.12;56.28;;;;;;;-1.96;85.33;98494.64;1784845;80;21170;-78
2020/12/16 04:22:08;;;;;;;111.42;54.20;;;;;;;-1.94;85.85;98513.87;1784831;80;21002;-79
2020/12/16 04:24:34;;;;;;;190.75;83.50;;;;;;;-1.93;86.20;98511.52;1784824;80;20924;-77
2020/12/16 04:27:00;;;;;;;178.05;76.17;;;;;;;-1.90;85.91;98513.80;1784867;80;21648;-77
2020/12/16 04:29:26;;;;;;;419.43;166.47;;;;;;;-1.85;86.15;98501.60;1784835;80;21020;-79
2020/12/16 04:31:52;;;;;;;181.45;79.97;;;;;;;-1.82;86.08;98503.05;1756351;80;21265;-79
2020/12/16 04:34:18;;;;;;;198.17;87.35;;;;;;;-1.75;85.77;98508.75;1784834;80;20959;-77
2020/12/16 04:36:47;;;;;;;205.67;90.72;;;;;;;-1.73;86.34;98505.91;1784758;80;21181;-79
2020/12/16 04:39:13;;;;;;;131.50;65.55;;;;;;;-1.69;86.08;98511.68;1784472;80;21185;-77
2020/12/16 04:41:39;;;;;;;165.28;74.50;;;;;;;-1.56;86.01;98513.12;1784812;80;21106;-77
2020/12/16 04:44:06;;;;;;;150.75;63.78;;;;;;;-1.50;85.37;98511.86;1784837;80;21175;-77
2020/12/16 04:46:37;;;;;;;123.05;64.03;;;;;;;-1.53;85.04;98519.41;1756253;80;21035;-77
2020/12/16 04:49:00;;;;;;;116.57;56.92;;;;;;;-1.63;85.45;98518.36;1784796;80;21150;-77
2020/12/16 04:51:26;;;;;;;148.68;70.90;;;;;;;-1.58;85.25;98518.62;1784849;80;20931;-79
2020/12/16 04:53:53;;;;;;;150.65;83.85;;;;;;;-1.60;85.23;98516.67;1784912;80;21214;-77
2020/12/16 04:56:19;;;;;;;139.47;72.92;;;;;;;-1.68;85.42;98520.78;1784838;80;21155;-79
2020/12/16 04:58:45;;;;;;;126.87;64.53;;;;;;;-1.72;86.39;98528.30;1756101;80;20979;-77
2020/12/16 05:01:11;;;;;;;110.55;58.08;;;;;;;-1.71;86.28;98529.97;1756104;80;21130;-77
2020/12/16 05:03:41;;;;;;;104.78;51.85;;;;;;;-1.73;85.80;98531.97;1784877;80;20944;-79
2020/12/16 05:06:07;;;;;;;112.77;58.13;;;;;;;-1.76;85.45;98523.05;1784752;80;21138;-79
2020/12/16 05:08:33;;;;;;;125.58;61.85;;;;;;;-1.79;85.69;98527.42;1784841;80;21190;-79
2020/12/16 05:10:59;;;;;;;105.47;51.13;;;;;;;-1.79;86.29;98531.92;1756067;80;21026;-78
2020/12/16 05:13:26;;;;;;;115.25;59.38;;;;;;;-1.78;85.83;98528.25;1784797;80;21023;-79
2020/12/16 05:15:51;;;;;;;140.47;67.78;;;;;;;-1.77;85.80;98535.20;1784588;80;21082;-77
2020/12/16 05:18:22;;;;;;;131.52;66.65;;;;;;;-1.76;85.90;98542.16;1784829;80;21004;-79
2020/12/16 05:20:54;;;;;;;123.00;65.80;;;;;;;-1.72;85.99;98542.09;1784781;80;21273;-77
2020/12/16 05:23:27;;;;;;;134.87;66.97;;;;;;;-1.77;85.42;98548.48;1756739;80;21165;-78
2020/12/16 05:26:10;;;;;;;196.57;91.40;;;;;;;-1.89;85.20;98556.11;1783895;80;21463;-79
2020/12/16 05:28:41;;;;;;;146.65;75.25;;;;;;;-2.01;85.72;98549.64;1784799;80;21114;-78
2020/12/16 05:31:09;;;;;;;137.72;69.82;;;;;;;-1.98;85.25;98555.90;1756088;80;21102;-78
2020/12/16 05:33:46;;;;;;;127.95;65.60;;;;;;;-2.04;85.27;98557.48;1784667;80;21339;-78
2020/12/16 05:36:12;;;;;;;132.32;66.30;;;;;;;-2.00;85.48;98568.05;1784684;80;21487;-76
2020/12/16 05:38:53;;;;;;;118.93;54.30;;;;;;;-2.01;85.60;98565.08;1784776;80;20888;-77
2020/12/16 05:41:29;;;;;;;102.62;46.10;;;;;;;-2.04;85.18;98568.62;1755808;80;21102;-78
2020/12/16 05:44:21;;;;;;;86.02;42.05;;;;;;;-2.15;85.07;98564.58;1783691;80;21516;-80
2020/12/16 05:46:48;;;;;;;85.05;42.17;;;;;;;-2.18;85.35;98562.81;1784685;80;21962;-77
2020/12/16 05:49:28;;;;;;;96.02;49.88;;;;;;;-2.13;85.62;98571.88;1784709;80;21634;-78
2020/12/16 05:52:01;;;;;;;96.32;47.75;;;;;;;-2.10;85.56;98566.19;1784704;80;21586;-77
2020/12/16 05:54:28;;;;;;;114.40;55.25;;;;;;;-2.15;85.75;98568.56;1784760;80;21181;-79
2020/12/16 05:57:18;;;;;;;113.00;56.00;;;;;;;-2.24;85.65;98569.67;1784732;80;21197;-79
2020/12/16 06:00:10;;;;;;;105.90;53.23;;;;;;;-2.21;85.37;98568.50;1784803;80;21255;-77
2020/12/16 06:02:41;;;;;;;130.95;65.80;;;;;;;-2.23;85.26;98572.64;1777415;80;21630;-77
2020/12/16 06:05:09;;;;;;;106.32;54.53;;;;;;;-2.29;85.50;98570.75;1784715;80;21130;-79
2020/12/16 06:07:42;;;;;;;106.32;56.70;;;;;;;-2.27;86.13;98589.46;1784863;80;21106;-79
2020/12/16 06:10:08;;;;;;;116.73;54.13;;;;;;;-2.27;86.49;98585.98;1782788;80;21154;-78
2020/12/16 06:12:38;;;;;;;118.90;57.40;;;;;;;-2.25;86.04;98587.95;1784746;80;21241;-78
2020/12/16 06:15:12;;;;;;;136.92;60.55;;;;;;;-2.20;85.92;98588.73;1784673;80;21113;-79
2020/12/16 06:17:46;;;;;;;125.75;56.73;;;;;;;-2.17;85.91;98586.52;1784777;80;21126;-78
2020/12/16 06:20:14;;;;;;;116.35;53.68;;;;;;;-2.15;85.69;98588.48;1784707;80;21051;-78
2020/12/16 06:22:43;;;;;;;120.90;58.87;;;;;;;-2.17;85.33;98590.50;1784801;80;21114;-78
2020/12/16 06:25:10;;;;;;;103.38;43.83;;;;;;;-2.26;85.74;98595.59;1784544;80;21130;-79
2020/12/16 06:27:47;;;;;;;118.90;50.45;;;;;;;-2.21;85.53;98589.23;1784652;80;21166;-79
2020/12/16 06:33:18;;;;;;;127.12;59.80;;;;;;;-2.18;85.52;98590.69;1852065;77;22661;-78
2020/12/16 06:35:44;;;;;;;112.05;49.25;;;;;;;-2.23;85.86;98597.87;1795174;78;21331;-78
2020/12/16 06:38:23;;;;;;;114.37;55.67;;;;;;;-2.27;86.67;98601.91;1776438;80;21440;-76
2020/12/16 06:40:55;;;;;;;117.57;56.00;;;;;;;-2.20;86.35;98600.68;1776439;80;21210;-80
2020/12/16 06:43:35;;;;;;;117.65;58.05;;;;;;;-2.18;86.07;98602.64;1776434;80;21028;-79
2020/12/16 06:46:04;;;;;;;127.85;62.88;;;;;;;-2.17;85.84;98605.61;1776356;80;21075;-77
2020/12/16 06:48:36;;;;;;;126.10;59.08;;;;;;;-2.18;85.84;98605.30;1776624;80;21114;-79
2020/12/16 06:51:21;;;;;;;128.82;59.18;;;;;;;-2.16;85.73;98609.41;1776109;80;21375;-79
2020/12/16 06:54:03;;;;;;;134.25;58.02;;;;;;;-2.16;85.50;98608.08;1776289;80;21009;-79
2020/12/16 06:56:29;;;;;;;115.37;55.55;;;;;;;-2.16;85.67;98613.89;1776386;80;21110;-77
2020/12/16 06:58:55;;;;;;;127.53;58.23;;;;;;;-2.14;85.48;98621.98;1745739;80;21003;-79
2020/12/16 07:01:21;;;;;;;122.98;58.28;;;;;;;-2.12;85.65;98617.34;1776367;80;20948;-79
2020/12/16 07:03:46;;;;;;;121.77;57.85;;;;;;;-2.08;85.53;98611.97;1776461;80;21358;-77
2020/12/16 07:06:33;;;;;;;119.65;55.90;;;;;;;-2.09;85.26;98612.16;1776306;80;20960;-79
2020/12/16 07:09:20;;;;;;;132.18;57.88;;;;;;;-2.12;85.11;98611.20;1776556;80;21522;-77
2020/12/16 07:11:48;;;;;;;139.22;64.82;;;;;;;-2.04;85.40;98619.91;1776125;80;21441;-77
2020/12/16 07:14:18;;;;;;;141.75;64.47;;;;;;;-2.06;85.26;98620.56;1776353;80;21107;-77
2020/12/16 07:16:45;;;;;;;119.25;55.23;;;;;;;-2.03;85.45;98613.58;1776249;80;21963;-77
2020/12/16 07:19:14;;;;;;;116.33;56.25;;;;;;;-1.96;85.40;98624.80;1776372;80;21611;-77
2020/12/16 07:21:40;;;;;;;120.45;52.98;;;;;;;-1.93;85.44;98621.77;1771420;80;21202;-79
2020/12/16 07:24:30;;;;;;;107.00;46.95;;;;;;;-1.92;85.04;98618.91;1776345;80;21055;-79
2020/12/16 07:26:56;;;;;;;115.72;55.25;;;;;;;-1.95;84.94;98623.28;1766801;80;21223;-79
2020/12/16 07:29:33;;;;;;;126.27;62.43;;;;;;;-2.07;85.14;98617.59;1734867;79;21332;-78
2020/12/16 07:32:08;;;;;;;126.27;60.98;;;;;;;-2.11;85.30;98617.66;1766792;81;21124;-77
2020/12/16 07:34:46;;;;;;;149.75;75.65;;;;;;;-2.06;85.18;98613.11;1766828;79;21156;-78
2020/12/16 07:37:12;;;;;;;135.37;72.25;;;;;;;-2.00;85.16;98621.67;1766830;81;21128;-78
2020/12/16 07:40:13;;;;;;;134.57;59.27;;;;;;;-1.97;85.01;98623.95;1734713;79;21061;-78
2020/12/16 07:42:39;;;;;;;112.35;56.48;;;;;;;-1.96;84.83;98619.48;1734268;81;22893;-76
2020/12/16 07:45:07;;;;;;;165.18;93.40;;;;;;;-2.00;84.94;98626.48;1766158;79;20914;-77
2020/12/16 07:47:33;;;;;;;123.25;65.92;;;;;;;-1.96;84.82;98634.09;1766291;81;21137;-77
2020/12/16 07:49:59;;;;;;;159.85;85.62;;;;;;;-1.90;84.96;98635.48;1766194;79;20898;-78
2020/12/16 07:52:27;;;;;;;164.47;90.62;;;;;;;-1.77;85.11;98640.16;1766196;81;21023;-79
2020/12/16 07:54:54;;;;;;;238.87;140.73;;;;;;;-1.67;85.14;98643.84;1765079;79;21192;-78
2020/12/16 07:57:34;;;;;;;134.60;75.65;;;;;;;-1.65;84.51;98643.97;1766266;81;21404;-77
2020/12/16 08:00:00;;;;;;;181.78;102.00;;;;;;;-1.51;84.71;98639.64;1765453;79;21093;-77
2020/12/16 08:02:26;;;;;;;324.15;202.47;;;;;;;-1.33;84.76;98638.72;1766194;81;21045;-77
2020/12/16 08:05:02;;;;;;;346.02;169.22;;;;;;;-1.21;84.50;98641.18;1734134;81;20938;-77
2020/12/16 08:07:27;;;;;;;225.93;107.17;;;;;;;-1.29;84.26;98635.16;1766060;80;21132;-77
2020/12/16 08:09:58;;;;;;;196.95;103.87;;;;;;;-1.25;84.51;98639.92;1766203;79;21041;-78
2020/12/16 08:12:26;;;;;;;202.43;94.25;;;;;;;-1.17;84.49;98645.13;1766202;81;21120;-78
2020/12/16 08:15:11;;;;;;;172.13;77.92;;;;;;;-1.10;84.53;98639.05;1766231;79;21494;-78
2020/12/16 08:17:41;;;;;;;201.02;95.67;;;;;;;-1.05;84.66;98643.28;1734233;81;21109;-78
2020/12/16 08:20:22;;;;;;;150.03;76.07;;;;;;;-1.04;84.47;98645.75;1766154;79;21196;-77
2020/12/16 08:22:50;;;;;;;156.32;78.07;;;;;;;-1.02;84.53;98638.93;1766152;81;21146;-77
2020/12/16 08:25:18;;;;;;;114.20;60.00;;;;;;;-1.07;84.62;98642.66;1766348;79;21085;-77
2020/12/16 08:27:47;;;;;;;124.65;58.83;;;;;;;-1.07;84.41;98646.14;1766203;81;21176;-78
2020/12/16 08:30:15;;;;;;;141.95;67.47;;;;;;;-1.05;84.73;98645.94;1766305;79;21109;-78
2020/12/16 08:33:01;;;;;;;126.58;67.32;;;;;;;-0.99;85.00;98653.17;1766105;81;21174;-78
2020/12/16 08:35:33;;;;;;;249.92;119.13;;;;;;;-0.93;85.06;98654.57;1734374;81;21529;-78
2020/12/16 08:38:06;;;;;;;136.32;71.62;;;;;;;-0.82;85.30;98657.73;1766200;81;21128;-77
2020/12/16 08:40:38;;;;;;;142.80;74.60;;;;;;;-0.72;85.29;98660.88;1766177;79;21113;-78
2020/12/16 08:43:24;;;;;;;144.72;75.15;;;;;;;-0.63;85.03;98659.22;1766256;81;21125;-79
2020/12/16 08:46:18;;;;;;;159.90;82.75;;;;;;;-0.52;85.09;98667.69;1766145;79;21855;-76
2020/12/16 08:49:01;;;;;;;117.50;59.98;;;;;;;-0.41;85.36;98668.00;1765031;81;21177;-77
2020/12/16 08:51:39;;;;;;;125.55;69.85;;;;;;;-0.27;85.09;98668.08;1766107;79;21132;-77
2020/12/16 08:54:10;;;;;;;121.67;65.40;;;;;;;-0.20;85.06;98667.63;1766470;81;21144;-78
2020/12/16 08:56:48;;;;;;;116.08;61.08;;;;;;;-0.11;85.18;98679.77;1766226;79;21450;-79
2020/12/16 08:59:25;;;;;;;115.37;61.48;;;;;;;-0.04;85.18;98676.65;1765777;80;21128;-76
2020/12/16 09:02:06;;;;;;;125.18;62.88;;;;;;;0.06;85.11;98683.77;1766163;81;21120;-79
2020/12/16 09:04:38;;;;;;;122.80;63.98;;;;;;;0.15;84.90;98687.10;1766158;79;21206;-77
2020/12/16 09:07:11;;;;;;;126.27;68.33;;;;;;;0.19;84.83;98685.20;1766241;81;21148;-79
2020/12/16 09:09:40;;;;;;;116.05;63.95;;;;;;;0.26;84.90;98683.91;1765871;79;21621;-78
2020/12/16 09:12:14;;;;;;;127.82;73.60;;;;;;;0.35;85.12;98684.56;1764021;81;21422;-78
2020/12/16 09:14:59;;;;;;;102.97;59.23;;;;;;;0.45;85.44;98687.16;1766044;79;21057;-77
2020/12/16 09:17:26;;;;;;;112.05;57.60;;;;;;;0.60;85.15;98691.03;1735768;81;21101;-76
2020/12/16 09:19:53;;;;;;;96.87;53.58;;;;;;;0.72;85.01;98692.60;1766106;79;21066;-77
2020/12/16 09:22:26;;;;;;;103.05;56.33;;;;;;;0.81;84.96;98698.06;1766217;81;21160;-78
2020/12/16 09:24:56;;;;;;;89.50;47.45;;;;;;;0.88;84.90;98688.75;1766094;79;21994;-80
2020/12/16 09:27:22;;;;;;;86.82;49.48;;;;;;;0.99;84.99;98690.83;1766067;79;21136;-76
2020/12/16 09:29:47;;;;;;;82.90;47.70;;;;;;;1.06;84.82;98692.48;1733818;81;21018;-78
2020/12/16 09:32:18;;;;;;;90.12;47.98;;;;;;;1.18;85.01;98691.88;1733904;81;20891;-76
2020/12/16 09:34:47;;;;;;;84.32;46.45;;;;;;;1.28;84.84;98685.62;1764731;79;21232;-77
2020/12/16 09:37:18;;;;;;;68.35;39.35;;;;;;;1.36;84.77;98680.09;1733974;81;21168;-78
2020/12/16 09:39:46;;;;;;;74.03;41.53;;;;;;;1.47;84.78;98685.36;1766135;79;21664;-78
2020/12/16 09:42:15;;;;;;;69.80;37.00;;;;;;;1.57;84.60;98688.44;1766147;81;21136;-79
2020/12/16 09:44:41;;;;;;;68.70;35.57;;;;;;;1.70;84.30;98689.23;1766315;79;21164;-78
2020/12/16 09:47:22;;;;;;;65.52;34.60;;;;;;;1.73;84.04;98673.33;1734128;81;21630;-79
2020/12/16 09:50:04;;;;;;;84.15;45.52;;;;;;;2.01;83.94;98691.79;1759183;80;21200;-78
2020/12/16 09:52:35;;;;;;;60.20;34.53;;;;;;;2.17;83.94;98694.02;1766089;81;21176;-78
2020/12/16 09:55:22;;;;;;;63.63;35.23;;;;;;;2.35;83.37;98692.02;1766119;79;21172;-78
2020/12/16 09:58:04;;;;;;;64.17;36.63;;;;;;;2.47;83.15;98691.66;1766146;81;21127;-79
2020/12/16 10:00:31;;;;;;;62.58;32.90;;;;;;;2.63;82.67;98684.20;1766130;79;21448;-79
2020/12/16 10:03:02;;;;;;;92.70;39.58;;;;;;;2.75;82.15;98686.53;1766128;81;21923;-77
2020/12/16 10:05:29;;;;;;;62.35;31.75;;;;;;;2.89;79.85;98688.61;1766016;79;21069;-78
2020/12/16 10:07:55;;;;;;;39.85;22.80;;;;;;;3.00;80.40;98690.63;1766115;81;21219;-77
2020/12/16 10:10:21;;;;;;;54.27;30.77;;;;;;;3.13;80.01;98697.75;1766097;79;21107;-79
2020/12/16 10:12:48;;;;;;;53.28;31.07;;;;;;;3.20;80.48;98693.17;1733832;81;21355;-79
2020/12/16 10:15:14;;;;;;;57.43;34.85;;;;;;;3.29;80.61;98696.72;1734268;81;21541;-78
2020/12/16 10:17:40;;;;;;;53.08;30.02;;;;;;;3.39;80.83;98694.89;1734114;81;21192;-77
2020/12/16 10:20:06;;;;;;;62.80;34.78;;;;;;;3.52;79.14;98693.47;1734096;81;20993;-78
2020/12/16 10:22:32;;;;;;;63.75;38.05;;;;;;;3.62;79.03;98695.14;1733937;81;21108;-77
2020/12/16 10:24:58;;;;;;;55.25;30.10;;;;;;;3.68;79.70;98692.94;1766058;79;21681;-78
2020/12/16 10:27:24;;;;;;;48.73;29.07;;;;;;;3.79;78.08;98690.57;1766059;80;21159;-77
2020/12/16 10:29:50;;;;;;;77.72;43.63;;;;;;;3.78;78.28;98688.41;1765956;79;21025;-78
2020/12/16 10:32:16;;;;;;;56.53;32.23;;;;;;;3.81;78.38;98693.33;1766100;81;20970;-78
2020/12/16 10:34:42;;;;;;;44.48;21.25;;;;;;;3.86;77.71;98687.32;1734230;79;21743;-77
2020/12/16 10:37:08;;;;;;;50.52;28.90;;;;;;;3.95;76.12;98684.13;1766215;81;21044;-78
2020/12/16 10:39:34;;;;;;;70.62;43.78;;;;;;;3.99;75.84;98673.77;1766140;79;21271;-78
2020/12/16 10:42:00;;;;;;;51.08;27.52;;;;;;;4.00;76.25;98675.93;1766024;80;21131;-78
2020/12/16 10:44:26;;;;;;;58.80;30.37;;;;;;;4.04;76.33;98675.28;1766113;79;20946;-77
2020/12/16 10:46:55;;;;;;;56.30;30.02;;;;;;;4.06;74.98;98677.21;1766065;80;21564;-78
2020/12/16 10:49:26;;;;;;;58.23;31.73;;;;;;;4.04;75.63;98677.14;1766231;81;21159;-78
2020/12/16 10:51:53;;;;;;;61.42;31.23;;;;;;;4.03;76.05;98676.33;1766071;80;21260;-77
2020/12/16 10:54:20;;;;;;;41.60;22.77;;;;;;;4.04;75.22;98679.30;1766044;81;21160;-76
2020/12/16 10:56:54;;;;;;;38.15;21.77;;;;;;;4.05;75.65;98677.44;1766039;79;21065;-77
2020/12/16 10:59:21;;;;;;;49.80;23.57;;;;;;;4.03;75.97;98676.84;1765506;81;21669;-78
2020/12/16 11:01:47;;;;;;;44.80;21.35;;;;;;;4.05;74.84;98668.05;1766068;79;21061;-76
2020/12/16 11:04:13;;;;;;;39.98;20.17;;;;;;;4.04;75.38;98661.05;1766122;81;21920;-76
2020/12/16 11:06:46;;;;;;;46.15;24.05;;;;;;;4.07;75.14;98654.71;1766003;79;21025;-75
2020/12/16 11:09:15;;;;;;;39.08;20.65;;;;;;;4.11;75.62;98659.95;1765360;80;21172;-77
2020/12/16 11:11:43;;;;;;;47.03;25.23;;;;;;;4.14;75.89;98656.81;1734614;81;21191;-77
2020/12/16 11:14:09;;;;;;;37.33;20.25;;;;;;;4.22;74.63;98662.41;1764915;80;21137;-78
2020/12/16 11:16:35;;;;;;;70.90;36.38;;;;;;;4.25;74.91;98653.38;1765995;79;21104;-78
2020/12/16 11:19:01;;;;;;;48.68;28.47;;;;;;;4.29;75.65;98655.11;1734061;81;20902;-77
2020/12/16 11:21:27;;;;;;;58.65;28.27;;;;;;;4.30;75.99;98652.72;1766213;79;21581;-77
2020/12/16 11:23:53;;;;;;;43.68;20.48;;;;;;;4.36;75.03;98657.69;1766241;81;21716;-77